Time;durP1;ratioP1;P1;durP2;ratioP2;P2;SDS_P1;SDS_P2;PMS_P1;PMS_P2;Temp;Humidity;BMP_temperature;BMP_pressure;BME280_temperature;BME280_humidity;BME280_pressure;Samples;Min_cycle;Max_cycle;Signal;HPM_P1;HPM_P2
2022/11/08 00:02:24;;;;;;;2.50;1.25;;;14.40;99.90;;;;;;5021456;28;20182;-77
2022/11/08 00:04:50;;;;;;;3.80;1.50;;;14.40;99.90;;;;;;5021547;28;20283;-75
2022/11/08 00:15:37;;;;;;;3.40;1.15;;;14.30;99.90;;;;;;5020138;28;20185;-77
2022/11/08 00:18:06;;;;;;;2.55;1.20;;;14.30;99.90;;;;;;5044281;28;20205;-77
2022/11/08 00:20:32;;;;;;;2.70;1.00;;;14.30;99.90;;;;;;5031000;28;20233;-77
2022/11/08 00:22:57;;;;;;;3.47;1.50;;;14.30;99.90;;;;;;5019891;28;20241;-76
2022/11/08 00:25:23;;;;;;;2.85;1.08;;;14.30;99.90;;;;;;5026064;28;20200;-76
2022/11/08 00:27:48;;;;;;;3.90;1.20;;;14.30;99.90;;;;;;5043697;28;20178;-77
2022/11/08 00:30:19;;;;;;;2.42;0.93;;;14.30;99.90;;;;;;5022275;28;20174;-77
2022/11/08 00:32:46;;;;;;;2.08;1.42;;;14.20;99.90;;;;;;5024375;28;20189;-77
2022/11/08 00:35:12;;;;;;;2.03;1.10;;;14.30;99.90;;;;;;5033607;28;20198;-77
2022/11/08 00:37:38;;;;;;;1.73;0.90;;;14.30;99.90;;;;;;5029435;28;20183;-78
2022/11/08 00:40:04;;;;;;;2.40;1.30;;;14.30;99.90;;;;;;5031530;28;20267;-77
2022/11/08 00:42:29;;;;;;;1.95;1.15;;;14.30;99.90;;;;;;5029286;28;20255;-77
2022/11/08 00:44:55;;;;;;;2.75;1.20;;;14.30;99.90;;;;;;5054980;28;20269;-78
2022/11/08 00:47:22;;;;;;;3.42;1.30;;;14.30;99.90;;;;;;5050263;28;20208;-77
2022/11/08 00:49:51;;;;;;;1.52;1.00;;;14.30;99.90;;;;;;5061618;28;20173;-76
2022/11/08 00:52:16;;;;;;;2.85;1.30;;;14.30;99.90;;;;;;5053067;28;20200;-76
2022/11/08 00:54:44;;;;;;;4.43;1.60;;;14.30;99.90;;;;;;5035805;28;20233;-77
2022/11/08 00:57:12;;;;;;;4.28;1.42;;;14.30;99.90;;;;;;5035389;28;20169;-78
2022/11/08 00:59:40;;;;;;;3.25;1.38;;;14.30;99.90;;;;;;5034569;28;20280;-76
2022/11/08 01:02:11;;;;;;;3.10;1.38;;;14.30;99.90;;;;;;5048891;28;20205;-77
2022/11/08 01:04:36;;;;;;;3.38;1.50;;;14.30;99.90;;;;;;5028989;28;20206;-77
2022/11/08 01:07:28;;;;;;;2.65;1.70;;;14.30;99.90;;;;;;5018308;28;20171;-75
2022/11/08 01:09:54;;;;;;;3.13;1.90;;;14.30;99.90;;;;;;5054313;28;20195;-77
2022/11/08 01:12:21;;;;;;;4.47;2.00;;;14.30;99.90;;;;;;5052579;28;20178;-78
2022/11/08 01:14:49;;;;;;;2.63;1.75;;;14.30;99.90;;;;;;5025259;28;20194;-77
2022/11/08 01:17:17;;;;;;;3.45;1.65;;;14.30;99.90;;;;;;5026779;28;20183;-77
2022/11/08 01:19:43;;;;;;;3.65;2.15;;;14.30;99.90;;;;;;5031234;28;20209;-77
2022/11/08 01:22:11;;;;;;;3.55;1.90;;;14.30;99.90;;;;;;5040047;28;20174;-77
2022/11/08 01:24:36;;;;;;;4.20;2.05;;;14.30;99.90;;;;;;5053617;28;20304;-77
2022/11/08 01:27:02;;;;;;;4.53;1.90;;;14.30;99.90;;;;;;5041792;28;20182;-77
2022/11/08 01:29:28;;;;;;;3.80;2.28;;;14.30;99.90;;;;;;5033793;28;20173;-78
2022/11/08 01:31:53;;;;;;;5.15;2.38;;;14.30;99.90;;;;;;5059879;28;20170;-77
2022/11/08 01:34:21;;;;;;;4.00;2.33;;;14.30;99.90;;;;;;5044443;28;20185;-76
2022/11/08 01:36:47;;;;;;;3.03;2.15;;;14.30;99.90;;;;;;5044313;28;20193;-77
2022/11/08 01:39:12;;;;;;;4.20;2.10;;;14.30;99.90;;;;;;5036658;28;20496;-76
2022/11/08 01:41:40;;;;;;;4.00;2.28;;;14.30;99.90;;;;;;5037742;28;20202;-77
2022/11/08 01:44:17;;;;;;;4.05;2.53;;;14.30;99.90;;;;;;5047880;28;20202;-77
2022/11/08 01:46:45;;;;;;;3.10;2.20;;;14.30;99.90;;;;;;5033961;28;20265;-77
2022/11/08 01:49:35;;;;;;;5.07;2.88;;;14.30;99.90;;;;;;5039351;28;20205;-78
2022/11/08 01:52:13;;;;;;;4.57;2.60;;;14.30;99.90;;;;;;5029467;28;20177;-76
2022/11/08 01:54:52;;;;;;;3.97;1.90;;;14.20;99.90;;;;;;5038806;28;20439;-77
2022/11/08 01:57:24;;;;;;;3.67;2.20;;;14.20;99.90;;;;;;5056973;28;20173;-77
2022/11/08 01:59:56;;;;;;;3.17;2.35;;;14.20;99.90;;;;;;5032027;28;20166;-77
2022/11/08 02:02:24;;;;;;;4.65;2.50;;;14.10;99.90;;;;;;5042232;28;20208;-77
2022/11/08 02:04:52;;;;;;;4.80;2.75;;;14.10;99.90;;;;;;5035651;28;20264;-76
2022/11/08 02:07:20;;;;;;;3.40;2.70;;;14.10;99.90;;;;;;5038843;28;20174;-77
2022/11/08 02:09:47;;;;;;;4.85;2.40;;;13.90;99.90;;;;;;5057856;28;20170;-76
2022/11/08 02:12:14;;;;;;;4.47;2.55;;;13.90;99.90;;;;;;5042168;28;20210;-77
2022/11/08 02:14:42;;;;;;;3.65;2.25;;;13.90;99.90;;;;;;5050370;28;20267;-76
2022/11/08 02:17:10;;;;;;;3.85;2.38;;;13.90;99.90;;;;;;5047367;28;20178;-77
2022/11/08 02:19:46;;;;;;;3.47;2.15;;;13.80;99.90;;;;;;5049761;28;20197;-78
2022/11/08 02:22:17;;;;;;;3.22;2.08;;;13.80;99.90;;;;;;5037001;28;20231;-77
2022/11/08 02:24:43;;;;;;;3.65;1.90;;;13.70;99.90;;;;;;5056023;28;20204;-77
2022/11/08 02:27:10;;;;;;;2.63;1.90;;;13.70;99.90;;;;;;5034952;28;20246;-78
2022/11/08 02:29:39;;;;;;;3.63;2.08;;;13.70;99.90;;;;;;5054688;28;20243;-77
2022/11/08 02:32:06;;;;;;;3.10;1.90;;;13.70;99.90;;;;;;5036431;28;20209;-76
2022/11/08 02:34:33;;;;;;;2.85;1.70;;;13.70;99.90;;;;;;5035754;28;20188;-76
2022/11/08 02:37:00;;;;;;;3.92;1.80;;;13.60;99.90;;;;;;5033610;28;20179;-77
2022/11/08 02:39:27;;;;;;;3.95;1.65;;;13.70;99.90;;;;;;5037792;28;20253;-77
2022/11/08 02:41:54;;;;;;;3.10;1.80;;;13.60;99.90;;;;;;5033121;28;20209;-77
2022/11/08 02:44:19;;;;;;;5.15;1.85;;;13.60;99.90;;;;;;5023399;28;20202;-76
2022/11/08 02:46:45;;;;;;;3.83;1.70;;;13.60;99.90;;;;;;5053866;28;21814;-77
2022/11/08 02:49:13;;;;;;;3.38;1.60;;;13.60;99.90;;;;;;5016709;28;20239;-77
2022/11/08 02:51:41;;;;;;;2.67;1.60;;;13.50;99.90;;;;;;5026542;28;20263;-77
2022/11/08 02:54:06;;;;;;;3.72;1.80;;;13.50;99.90;;;;;;5027132;28;20200;-76
2022/11/08 02:56:34;;;;;;;3.15;1.90;;;13.50;99.90;;;;;;5018199;28;20266;-77
2022/11/08 02:59:02;;;;;;;4.38;1.90;;;13.40;99.90;;;;;;5027150;28;20266;-77
2022/11/08 03:01:30;;;;;;;2.95;1.60;;;13.40;99.90;;;;;;5021026;28;20202;-77
2022/11/08 03:04:00;;;;;;;4.55;1.92;;;13.40;99.90;;;;;;5035068;28;20256;-77
2022/11/08 03:06:28;;;;;;;4.03;1.80;;;13.30;99.90;;;;;;5046079;28;20206;-77
2022/11/08 03:08:56;;;;;;;3.35;1.63;;;13.30;99.90;;;;;;5048957;28;20179;-76
2022/11/08 03:11:22;;;;;;;4.03;1.92;;;13.30;99.90;;;;;;5016790;28;20186;-77
2022/11/08 03:13:47;;;;;;;4.07;1.90;;;13.20;99.90;;;;;;5043642;28;20197;-77
2022/11/08 03:16:13;;;;;;;3.33;2.03;;;13.20;99.90;;;;;;5072676;28;20173;-75
2022/11/08 03:18:42;;;;;;;3.83;2.00;;;13.20;99.90;;;;;;5044458;28;20472;-77
2022/11/08 03:21:11;;;;;;;2.78;2.00;;;13.20;99.90;;;;;;5058556;28;20189;-77
2022/11/08 03:23:36;;;;;;;4.78;2.20;;;13.10;99.90;;;;;;5031824;28;20193;-78
2022/11/08 03:26:03;;;;;;;2.78;1.88;;;13.10;99.90;;;;;;5026865;28;20201;-77
2022/11/08 03:28:29;;;;;;;3.65;2.00;;;13.10;99.90;;;;;;5038558;28;20181;-77
2022/11/08 03:30:57;;;;;;;4.15;2.00;;;13.10;99.90;;;;;;5053744;28;20222;-76
2022/11/08 03:33:25;;;;;;;2.95;1.80;;;13.10;99.90;;;;;;5052203;28;20208;-78
2022/11/08 03:35:52;;;;;;;4.03;1.80;;;13.10;99.90;;;;;;5049844;28;20211;-75
2022/11/08 03:38:18;;;;;;;4.65;2.20;;;13.00;99.90;;;;;;5030130;28;20183;-78
2022/11/08 03:40:46;;;;;;;3.72;2.00;;;13.10;99.90;;;;;;5024995;28;20194;-76
2022/11/08 03:43:15;;;;;;;2.53;1.90;;;13.10;99.90;;;;;;5036348;28;20174;-77
2022/11/08 03:45:40;;;;;;;2.72;2.03;;;13.00;99.90;;;;;;5048966;28;20189;-78
2022/11/08 03:48:09;;;;;;;5.60;2.60;;;13.00;99.90;;;;;;5016337;28;20233;-77
2022/11/08 03:50:37;;;;;;;2.95;1.70;;;13.00;99.90;;;;;;5029023;28;20249;-78
2022/11/08 03:53:05;;;;;;;2.22;1.90;;;13.00;99.90;;;;;;5031008;28;20174;-78
2022/11/08 03:55:31;;;;;;;2.63;1.83;;;13.10;99.90;;;;;;5043085;28;20201;-78
2022/11/08 03:57:56;;;;;;;10.10;2.50;;;13.00;99.90;;;;;;5043085;28;20201;-78
2022/11/08 04:00:31;;;;;;;3.42;1.98;;;13.00;99.90;;;;;;5029468;28;20185;-76
2022/11/08 04:03:05;;;;;;;3.83;1.92;;;13.00;99.90;;;;;;5020498;28;20190;-77
2022/11/08 04:05:31;;;;;;;1.95;1.77;;;13.00;99.90;;;;;;5037487;28;20220;-77
2022/11/08 04:07:59;;;;;;;2.47;1.85;;;13.00;99.90;;;;;;5028052;28;20447;-75
2022/11/08 04:10:24;;;;;;;2.95;1.90;;;13.00;99.90;;;;;;5033197;28;20203;-76
2022/11/08 04:15:38;;;;;;;4.18;1.92;;;13.00;99.90;;;;;;5023622;28;20186;-78
2022/11/08 04:23:36;;;;;;;3.22;2.00;;;12.90;99.90;;;;;;5028122;28;20544;-77
2022/11/08 04:26:05;;;;;;;4.30;2.28;;;12.90;99.90;;;;;;5021530;28;20225;-78
2022/11/08 04:28:35;;;;;;;2.58;2.00;;;12.90;99.90;;;;;;5028672;28;20186;-77
2022/11/08 04:31:12;;;;;;;4.13;2.42;;;12.80;99.90;;;;;;5038002;28;20207;-78
2022/11/08 04:33:40;;;;;;;3.60;1.88;;;12.80;99.90;;;;;;5044908;28;20233;-77
2022/11/08 04:36:09;;;;;;;2.22;1.90;;;12.80;99.90;;;;;;5038314;28;20237;-77
2022/11/08 04:38:37;;;;;;;4.65;1.90;;;12.80;99.90;;;;;;5043688;28;20289;-78
2022/11/08 04:41:09;;;;;;;3.25;2.13;;;12.80;99.90;;;;;;5038634;28;20174;-79
2022/11/08 04:43:35;;;;;;;4.85;2.08;;;12.70;99.90;;;;;;5042623;28;20175;-78
2022/11/08 04:46:06;;;;;;;4.85;2.53;;;12.80;99.90;;;;;;5040972;28;20247;-78
2022/11/08 04:48:35;;;;;;;4.30;2.42;;;12.70;99.90;;;;;;5064441;28;20200;-78
2022/11/08 04:51:05;;;;;;;6.15;3.85;;;12.70;99.90;;;;;;5014881;28;20277;-77
2022/11/08 04:53:32;;;;;;;3.90;2.40;;;12.60;99.90;;;;;;5049541;28;20192;-77
2022/11/08 04:56:03;;;;;;;3.55;2.22;;;12.60;99.90;;;;;;5030712;28;20269;-77
2022/11/08 04:58:38;;;;;;;3.85;2.30;;;12.60;99.90;;;;;;5014908;28;20232;-78
2022/11/08 05:01:08;;;;;;;4.30;2.30;;;12.50;99.90;;;;;;5028067;28;20170;-77
2022/11/08 05:03:34;;;;;;;2.70;2.15;;;12.50;99.90;;;;;;5033784;28;20226;-76
2022/11/08 05:06:11;;;;;;;4.25;2.33;;;12.50;99.90;;;;;;5050603;28;20213;-77
2022/11/08 05:08:38;;;;;;;4.28;2.55;;;12.50;99.90;;;;;;5033864;28;20260;-77
2022/11/08 05:11:07;;;;;;;4.10;2.25;;;12.50;99.90;;;;;;5046073;28;20181;-77
2022/11/08 05:13:36;;;;;;;4.00;2.42;;;12.50;99.90;;;;;;5051171;28;20179;-77
2022/11/08 05:16:12;;;;;;;3.38;2.05;;;12.40;99.90;;;;;;5065938;28;20178;-77
2022/11/08 05:18:43;;;;;;;3.67;2.05;;;12.50;99.90;;;;;;5052304;28;20213;-78
2022/11/08 05:24:14;;;;;;;6.78;2.13;;;12.50;99.90;;;;;;5037513;28;20182;-77
2022/11/08 05:26:41;;;;;;;4.45;2.60;;;12.50;99.90;;;;;;5038639;28;20205;-77
2022/11/08 05:29:10;;;;;;;4.75;2.67;;;12.50;99.90;;;;;;5044001;28;20194;-77
2022/11/08 05:31:36;;;;;;;4.97;2.20;;;12.50;99.90;;;;;;5050652;28;20201;-77
2022/11/08 05:34:04;;;;;;;3.30;2.28;;;12.50;99.90;;;;;;5048360;28;20166;-77
2022/11/08 05:36:32;;;;;;;2.65;1.83;;;12.50;99.90;;;;;;5029295;28;20178;-77
2022/11/08 05:39:00;;;;;;;4.78;2.17;;;12.50;99.90;;;;;;5024135;28;20229;-77
2022/11/08 05:41:26;;;;;;;4.25;2.13;;;12.50;99.90;;;;;;5032549;28;20200;-76
2022/11/08 05:43:53;;;;;;;3.33;1.90;;;12.50;99.90;;;;;;5030271;28;20165;-79
2022/11/08 05:46:23;;;;;;;2.92;1.83;;;12.50;99.90;;;;;;5061051;28;20201;-78
2022/11/08 05:48:51;;;;;;;4.25;1.90;;;12.50;99.90;;;;;;5029839;28;20174;-77
2022/11/08 05:51:20;;;;;;;3.97;1.90;;;12.50;99.90;;;;;;5046621;28;20197;-77
2022/11/08 05:53:47;;;;;;;4.78;1.90;;;12.50;99.90;;;;;;5073854;28;20194;-77
2022/11/08 05:56:15;;;;;;;3.72;2.00;;;12.50;99.90;;;;;;5053198;28;20213;-77
2022/11/08 05:58:44;;;;;;;3.72;2.00;;;12.60;99.90;;;;;;5038486;28;20191;-77
2022/11/08 06:01:15;;;;;;;3.13;1.63;;;12.50;99.90;;;;;;5052147;28;20257;-77
2022/11/08 06:03:41;;;;;;;3.00;1.63;;;12.50;99.90;;;;;;5031561;28;20182;-77
2022/11/08 06:06:09;;;;;;;2.88;1.70;;;12.50;99.90;;;;;;5033143;28;20254;-76
2022/11/08 06:08:36;;;;;;;2.38;1.42;;;12.50;99.90;;;;;;5037734;28;20181;-78
2022/11/08 06:11:09;;;;;;;2.40;1.58;;;12.50;99.90;;;;;;5053430;28;20252;-77
2022/11/08 06:13:36;;;;;;;2.25;1.65;;;12.50;99.90;;;;;;5034363;28;20178;-78
2022/11/08 06:16:06;;;;;;;1.70;1.35;;;12.50;99.90;;;;;;5028782;28;20169;-77
2022/11/08 06:18:33;;;;;;;2.42;1.55;;;12.50;99.90;;;;;;5023051;28;20221;-78
2022/11/08 06:21:01;;;;;;;1.92;1.40;;;12.50;99.90;;;;;;5042827;28;20238;-78
2022/11/08 06:23:30;;;;;;;2.28;1.38;;;12.50;99.90;;;;;;5060316;28;20218;-77
2022/11/08 06:25:56;;;;;;;1.90;1.50;;;12.60;99.90;;;;;;5016828;28;20207;-78
2022/11/08 06:28:22;;;;;;;2.88;1.38;;;12.50;99.90;;;;;;5017198;28;20170;-78
2022/11/08 06:30:50;;;;;;;3.80;1.65;;;12.50;99.90;;;;;;5020989;28;20209;-78
2022/11/08 06:33:19;;;;;;;3.90;1.75;;;12.50;99.90;;;;;;5036230;28;20185;-78
2022/11/08 06:35:45;;;;;;;3.92;2.03;;;12.50;99.90;;;;;;5034494;28;20197;-77
2022/11/08 06:38:11;;;;;;;2.05;1.30;;;12.60;99.90;;;;;;5023431;28;20186;-79
2022/11/08 06:40:38;;;;;;;2.60;1.75;;;12.60;99.90;;;;;;5016658;28;20186;-78
2022/11/08 06:43:04;;;;;;;2.00;1.23;;;12.60;99.90;;;;;;5028348;28;20178;-79
2022/11/08 06:45:30;;;;;;;1.67;1.27;;;12.60;99.90;;;;;;5037812;28;20285;-79
2022/11/08 06:48:06;;;;;;;2.97;1.35;;;12.60;99.90;;;;;;5032834;28;20210;-78
2022/11/08 06:50:34;;;;;;;2.30;1.40;;;12.60;99.90;;;;;;5030556;28;20231;-78
2022/11/08 06:53:06;;;;;;;2.83;1.30;;;12.60;99.90;;;;;;5033068;28;20177;-80
2022/11/08 06:55:33;;;;;;;1.20;1.02;;;12.60;99.90;;;;;;5034832;28;20166;-80
2022/11/08 06:57:58;;;;;;;1.88;1.27;;;12.70;99.90;;;;;;5072878;28;20201;-79
2022/11/08 07:00:27;;;;;;;2.47;1.30;;;12.70;99.90;;;;;;5061128;28;20173;-80
2022/11/08 07:03:00;;;;;;;2.00;1.23;;;12.70;99.90;;;;;;5035911;28;20170;-81
2022/11/08 07:05:28;;;;;;;2.92;1.33;;;12.70;99.90;;;;;;5018206;28;20206;-80
2022/11/08 07:07:55;;;;;;;1.83;1.10;;;12.70;99.90;;;;;;5031073;28;20178;-79
2022/11/08 07:10:23;;;;;;;1.75;1.30;;;12.70;99.90;;;;;;5044792;28;20165;-80
2022/11/08 07:13:01;;;;;;;2.15;1.30;;;12.80;99.90;;;;;;5071971;28;20197;-80
2022/11/08 07:15:27;;;;;;;1.88;1.38;;;12.80;99.90;;;;;;5048402;28;20194;-80
2022/11/08 07:17:53;;;;;;;1.77;1.08;;;12.80;99.90;;;;;;5026571;28;20201;-80
2022/11/08 07:20:21;;;;;;;4.03;1.30;;;12.90;99.90;;;;;;5032453;28;20218;-80
2022/11/08 07:22:46;;;;;;;3.22;1.48;;;12.90;99.90;;;;;;5051496;28;20174;-81
2022/11/08 07:25:12;;;;;;;2.40;1.15;;;12.90;99.90;;;;;;5055351;28;20221;-80
2022/11/08 07:27:38;;;;;;;2.03;1.35;;;13.00;99.90;;;;;;5050760;28;20182;-80
2022/11/08 07:30:04;;;;;;;1.73;1.15;;;13.00;99.90;;;;;;5035272;28;20261;-78
2022/11/08 07:32:30;;;;;;;2.33;1.13;;;13.10;99.90;;;;;;5018841;28;20214;-80
2022/11/08 07:34:56;;;;;;;2.20;1.33;;;13.10;99.90;;;;;;5018416;28;20260;-80
2022/11/08 07:37:21;;;;;;;3.03;1.30;;;13.10;99.90;;;;;;5028188;28;20186;-80
2022/11/08 07:39:47;;;;;;;2.53;1.38;;;13.10;99.90;;;;;;5035312;28;20183;-80
2022/11/08 07:42:13;;;;;;;2.72;1.40;;;13.10;99.90;;;;;;5015462;28;20174;-79
2022/11/08 07:44:38;;;;;;;3.83;1.33;;;13.20;99.90;;;;;;5021686;28;20233;-79
2022/11/08 07:47:04;;;;;;;2.05;1.25;;;13.20;99.90;;;;;;5018525;28;20182;-74
2022/11/08 07:49:30;;;;;;;3.00;1.38;;;13.10;99.90;;;;;;5034946;28;20265;-80
2022/11/08 07:51:55;;;;;;;1.90;1.38;;;13.20;99.90;;;;;;5034595;28;20173;-80
2022/11/08 07:54:21;;;;;;;1.13;1.02;;;13.20;99.90;;;;;;5043010;28;20169;-79
2022/11/08 07:56:49;;;;;;;2.25;1.30;;;13.30;99.90;;;;;;5067677;28;20261;-79
2022/11/08 07:59:17;;;;;;;2.55;1.20;;;13.30;99.90;;;;;;5029250;28;20174;-80
2022/11/08 08:01:42;;;;;;;2.38;1.55;;;13.30;99.90;;;;;;5031979;28;20292;-79
2022/11/08 08:04:10;;;;;;;3.00;1.30;;;13.30;99.90;;;;;;5048560;28;20218;-79
2022/11/08 08:06:39;;;;;;;2.38;1.20;;;13.40;99.90;;;;;;5027454;28;20225;-76
2022/11/08 08:09:05;;;;;;;2.13;1.35;;;13.40;99.90;;;;;;5035374;28;20190;-79
2022/11/08 08:11:30;;;;;;;3.83;1.40;;;13.40;99.90;;;;;;5030946;28;20182;-80
2022/11/08 08:13:56;;;;;;;4.45;1.40;;;13.50;99.90;;;;;;5015269;28;20189;-80
2022/11/08 08:16:24;;;;;;;3.60;1.20;;;13.50;99.90;;;;;;5015112;28;20202;-80
2022/11/08 08:18:52;;;;;;;1.70;1.23;;;13.50;99.90;;;;;;5043683;28;20200;-78
2022/11/08 08:21:18;;;;;;;1.80;1.50;;;13.50;99.90;;;;;;5071579;28;20233;-81
2022/11/08 08:23:43;;;;;;;1.65;1.30;;;13.60;99.90;;;;;;5071373;28;20247;-79
2022/11/08 08:26:11;;;;;;;2.50;1.48;;;13.60;99.90;;;;;;5064536;28;20208;-79
2022/11/08 08:28:37;;;;;;;2.30;1.40;;;13.70;99.90;;;;;;5035054;28;20440;-80
2022/11/08 08:31:06;;;;;;;1.75;1.30;;;13.70;99.90;;;;;;5034698;28;20206;-80
2022/11/08 08:33:32;;;;;;;1.98;1.30;;;13.80;99.90;;;;;;5034713;28;20184;-79
2022/11/08 08:36:00;;;;;;;1.75;1.20;;;13.80;99.90;;;;;;5034862;28;20179;-79
2022/11/08 08:38:26;;;;;;;3.10;1.42;;;13.90;99.90;;;;;;5034237;28;20228;-80
2022/11/08 08:40:51;;;;;;;2.85;1.48;;;13.90;99.90;;;;;;5034523;28;20178;-79
2022/11/08 08:43:18;;;;;;;2.72;1.50;;;13.90;99.90;;;;;;5034706;28;20177;-79
2022/11/08 08:45:47;;;;;;;2.13;1.70;;;14.00;99.90;;;;;;5034428;28;20220;-80
2022/11/08 08:48:13;;;;;;;2.20;1.30;;;14.10;99.90;;;;;;5034780;28;20178;-79
2022/11/08 08:50:39;;;;;;;1.40;1.20;;;14.10;99.90;;;;;;5021103;28;20190;-80
2022/11/08 08:53:05;;;;;;;1.20;1.10;;;14.20;99.90;;;;;;5041816;28;20205;-76
2022/11/08 08:55:34;;;;;;;2.15;1.30;;;14.30;99.90;;;;;;5035086;28;20193;-78
2022/11/08 08:58:00;;;;;;;2.95;1.10;;;14.30;99.90;;;;;;5034449;28;20189;-78
2022/11/08 09:00:28;;;;;;;2.15;1.30;;;14.40;99.90;;;;;;5034483;28;20208;-78
2022/11/08 09:02:56;;;;;;;1.90;1.25;;;14.40;99.90;;;;;;5034054;28;20185;-78
2022/11/08 09:05:23;;;;;;;1.60;1.20;;;14.40;99.90;;;;;;5032735;28;20201;-80
2022/11/08 09:07:55;;;;;;;4.18;1.50;;;14.50;99.90;;;;;;5034560;28;20206;-79
2022/11/08 09:10:21;;;;;;;3.08;1.30;;;14.50;99.90;;;;;;5034335;28;20174;-80
2022/11/08 09:12:49;;;;;;;2.35;1.50;;;14.60;99.90;;;;;;5033053;28;20427;-79
2022/11/08 09:15:15;;;;;;;5.07;1.50;;;14.60;99.90;;;;;;5030485;28;20169;-80
2022/11/08 09:17:41;;;;;;;2.38;1.65;;;14.60;99.90;;;;;;5050795;28;20263;-79
2022/11/08 09:20:07;;;;;;;2.78;1.40;;;14.60;99.90;;;;;;5025135;28;20198;-80
2022/11/08 09:22:36;;;;;;;2.63;1.63;;;14.70;99.90;;;;;;5058559;28;20224;-79
2022/11/08 09:25:04;;;;;;;2.15;1.20;;;14.70;99.90;;;;;;5048202;28;20198;-77
2022/11/08 09:27:31;;;;;;;2.17;1.42;;;14.70;99.90;;;;;;5050374;28;20198;-79
2022/11/08 09:29:57;;;;;;;2.95;1.67;;;14.70;99.90;;;;;;5041009;28;20170;-80
2022/11/08 09:32:24;;;;;;;4.03;1.73;;;14.70;99.90;;;;;;5022861;28;20170;-77
2022/11/08 09:34:50;;;;;;;2.75;1.50;;;14.70;99.90;;;;;;5034142;28;20257;-77
2022/11/08 09:37:16;;;;;;;2.83;1.20;;;14.70;99.90;;;;;;5021428;28;20178;-79
2022/11/08 09:39:44;;;;;;;2.15;1.40;;;14.60;99.90;;;;;;5023606;28;20243;-80
2022/11/08 09:42:31;;;;;;;2.60;1.40;;;14.70;99.90;;;;;;5034083;28;20178;-79
2022/11/08 09:45:06;;;;;;;2.08;1.13;;;14.70;99.90;;;;;;5034258;28;20198;-79
2022/11/08 09:47:35;;;;;;;2.25;1.23;;;14.60;99.90;;;;;;5025584;28;20182;-78
2022/11/08 09:50:24;;;;;;;2.03;1.30;;;14.70;99.90;;;;;;5016709;28;20191;-79
2022/11/08 09:53:25;;;;;;;2.95;1.40;;;14.60;99.90;;;;;;5034436;28;20225;-79
2022/11/08 09:56:01;;;;;;;3.13;1.40;;;14.60;99.90;;;;;;5006173;28;20183;-80
2022/11/08 09:58:34;;;;;;;2.85;1.63;;;14.60;99.90;;;;;;5026788;28;20198;-78
2022/11/08 10:01:01;;;;;;;2.55;1.30;;;14.60;99.90;;;;;;5074304;28;20172;-79
2022/11/08 10:03:27;;;;;;;3.25;1.63;;;14.50;99.90;;;;;;5073836;28;20204;-81
2022/11/08 10:06:17;;;;;;;2.50;1.50;;;14.60;99.90;;;;;;5057152;28;20209;-78
2022/11/08 10:09:13;;;;;;;3.10;1.45;;;14.50;99.90;;;;;;5037293;28;20163;-80
2022/11/08 10:11:47;;;;;;;1.88;1.42;;;14.60;99.90;;;;;;5037160;28;20190;-80
2022/11/08 10:14:36;;;;;;;3.13;1.30;;;14.60;99.90;;;;;;5037301;28;20167;-78
2022/11/08 10:17:20;;;;;;;2.13;1.38;;;14.60;99.90;;;;;;5034642;28;20163;-79
2022/11/08 10:20:12;;;;;;;3.05;1.60;;;14.60;99.90;;;;;;5017400;28;20201;-80
2022/11/08 10:23:08;;;;;;;2.42;1.48;;;14.60;99.90;;;;;;5037315;28;20170;-79
2022/11/08 10:26:04;;;;;;;2.83;1.50;;;14.60;99.90;;;;;;5044464;28;20201;-79
2022/11/08 10:28:37;;;;;;;3.38;1.67;;;14.60;99.90;;;;;;5033125;28;20182;-80
2022/11/08 10:31:05;;;;;;;2.72;1.60;;;14.60;99.90;;;;;;5024824;28;20183;-78
2022/11/08 10:33:41;;;;;;;2.33;1.50;;;14.70;99.90;;;;;;5033123;28;20198;-77
2022/11/08 10:36:10;;;;;;;4.13;1.90;;;14.60;99.90;;;;;;5033584;28;20178;-79
2022/11/08 10:38:47;;;;;;;3.45;1.92;;;14.70;99.90;;;;;;5037020;28;20181;-78
2022/11/08 10:41:48;;;;;;;2.58;1.60;;;14.80;99.90;;;;;;5036508;28;20259;-78
2022/11/08 10:44:15;;;;;;;2.45;1.63;;;14.70;99.90;;;;;;5033259;28;20220;-77
2022/11/08 10:46:44;;;;;;;3.28;1.80;;;14.80;99.90;;;;;;5033025;28;20245;-78
2022/11/08 10:49:17;;;;;;;3.17;1.60;;;14.80;99.90;;;;;;5016557;28;20178;-79
2022/11/08 10:51:44;;;;;;;2.40;1.55;;;14.80;99.90;;;;;;5019181;28;20181;-78
2022/11/08 10:54:45;;;;;;;3.15;1.50;;;14.80;99.90;;;;;;5034278;28;20166;-78
2022/11/08 10:57:14;;;;;;;2.28;1.50;;;14.80;99.90;;;;;;5035793;28;20166;-78
2022/11/08 10:59:40;;;;;;;1.85;1.40;;;14.90;99.90;;;;;;5034593;28;20235;-78
2022/11/08 11:02:35;;;;;;;2.15;1.40;;;14.90;99.90;;;;;;5027119;28;20300;-79
2022/11/08 11:05:32;;;;;;;2.17;1.48;;;14.90;99.90;;;;;;5029178;28;20266;-79
2022/11/08 11:08:21;;;;;;;3.15;1.42;;;15.00;99.90;;;;;;5029944;28;20194;-78
2022/11/08 11:10:53;;;;;;;1.70;1.30;;;15.00;99.90;;;;;;5063338;28;20232;-79
2022/11/08 11:13:26;;;;;;;3.00;1.40;;;15.00;99.90;;;;;;5047161;28;20209;-78
2022/11/08 11:15:55;;;;;;;1.80;1.40;;;15.10;99.90;;;;;;5044848;28;20208;-79
2022/11/08 11:18:37;;;;;;;2.72;1.63;;;15.10;99.90;;;;;;5056946;28;20230;-78
2022/11/08 11:21:22;;;;;;;2.45;1.60;;;15.10;99.90;;;;;;5056722;28;20200;-78
2022/11/08 11:24:06;;;;;;;2.30;1.48;;;15.10;99.90;;;;;;5023154;28;20337;-77
2022/11/08 11:26:37;;;;;;;2.67;1.42;;;15.20;99.90;;;;;;5035392;28;20201;-79
2022/11/08 11:29:03;;;;;;;2.20;1.67;;;15.20;99.90;;;;;;5037026;28;20249;-80
2022/11/08 11:31:36;;;;;;;3.20;1.60;;;15.20;99.90;;;;;;5035684;28;20228;-80
2022/11/08 11:34:17;;;;;;;4.18;1.75;;;15.30;99.90;;;;;;5028912;28;20193;-76
2022/11/08 11:36:58;;;;;;;2.47;1.60;;;15.30;99.90;;;;;;5062079;28;20173;-78
2022/11/08 11:39:40;;;;;;;1.65;1.30;;;15.30;99.90;;;;;;5015861;28;20185;-81
2022/11/08 11:42:29;;;;;;;2.88;1.50;;;15.30;99.90;;;;;;5042554;28;20175;-79
2022/11/08 11:45:05;;;;;;;1.90;1.35;;;15.30;99.90;;;;;;5050748;28;20271;-80
2022/11/08 11:47:54;;;;;;;1.90;1.50;;;15.30;99.90;;;;;;5031941;28;20177;-76
2022/11/08 11:50:40;;;;;;;2.15;1.60;;;15.30;99.90;;;;;;5036534;28;20242;-79
2022/11/08 11:53:21;;;;;;;3.28;2.15;;;15.30;99.90;;;;;;5031803;28;20252;-77
2022/11/08 11:56:24;;;;;;;3.20;2.00;;;15.30;99.90;;;;;;5051268;28;20174;-76
2022/11/08 11:59:11;;;;;;;3.25;2.20;;;15.30;99.90;;;;;;5051780;28;20173;-78
2022/11/08 12:01:52;;;;;;;2.35;1.85;;;15.40;99.90;;;;;;5051574;28;20212;-79
2022/11/08 12:04:36;;;;;;;2.53;1.95;;;15.40;99.90;;;;;;5036518;28;20182;-79
2022/11/08 12:07:16;;;;;;;3.65;2.00;;;15.40;99.90;;;;;;5021134;28;20214;-79
2022/11/08 12:09:52;;;;;;;3.55;1.60;;;15.50;99.90;;;;;;5045947;28;20170;-76
2022/11/08 12:12:32;;;;;;;2.65;1.90;;;15.50;99.90;;;;;;5032411;28;20185;-78
2022/11/08 12:15:13;;;;;;;2.33;1.60;;;15.60;99.90;;;;;;5031085;28;20194;-78
2022/11/08 12:18:09;;;;;;;1.95;1.50;;;15.60;99.90;;;;;;5046675;28;20173;-76
2022/11/08 12:20:44;;;;;;;2.33;1.60;;;15.60;99.90;;;;;;5043847;28;20192;-75
2022/11/08 12:23:18;;;;;;;2.58;1.60;;;15.70;99.90;;;;;;5037631;28;20194;-78
2022/11/08 12:25:55;;;;;;;3.10;1.40;;;15.80;99.90;;;;;;5057750;28;20196;-78
2022/11/08 12:28:26;;;;;;;2.50;1.70;;;15.80;99.90;;;;;;5045240;28;20264;-78
2022/11/08 12:31:23;;;;;;;3.63;1.73;;;15.80;99.90;;;;;;5050661;28;20179;-77
2022/11/08 12:33:51;;;;;;;4.03;1.63;;;15.90;99.90;;;;;;5035927;28;20200;-78
2022/11/08 12:36:35;;;;;;;2.97;1.70;;;15.90;99.90;;;;;;5071106;28;20204;-79
2022/11/08 12:39:29;;;;;;;3.45;1.65;;;16.00;99.90;;;;;;5031391;28;20174;-77
2022/11/08 12:42:05;;;;;;;2.90;1.73;;;16.00;99.90;;;;;;5020208;28;20179;-77
2022/11/08 12:44:31;;;;;;;3.30;1.73;;;16.00;99.90;;;;;;5031445;28;20158;-79
2022/11/08 12:47:24;;;;;;;2.67;1.55;;;16.00;99.90;;;;;;5040071;28;20176;-78
2022/11/08 12:49:50;;;;;;;3.38;1.98;;;16.10;99.90;;;;;;5070770;28;20229;-77
2022/11/08 12:52:19;;;;;;;3.33;1.60;;;16.10;99.90;;;;;;5071000;28;20173;-77
2022/11/08 12:54:54;;;;;;;2.80;1.65;;;16.10;99.90;;;;;;5040523;28;20182;-78
2022/11/08 12:57:26;;;;;;;2.95;1.60;;;16.10;99.90;;;;;;5039400;28;20197;-77
2022/11/08 13:00:18;;;;;;;2.80;1.70;;;16.10;99.90;;;;;;5065138;28;20205;-77
2022/11/08 13:03:09;;;;;;;2.08;1.40;;;16.10;99.90;;;;;;5032296;28;20170;-76
2022/11/08 13:05:40;;;;;;;2.45;1.42;;;16.20;99.90;;;;;;5071349;28;20207;-78
2022/11/08 13:08:29;;;;;;;2.05;1.08;;;16.20;99.90;;;;;;5043217;28;20265;-78
2022/11/08 13:11:10;;;;;;;2.35;1.17;;;16.30;99.90;;;;;;5014499;28;20194;-78
2022/11/08 13:13:37;;;;;;;1.33;1.05;;;16.50;99.90;;;;;;5021601;28;20201;-78
2022/11/08 13:16:17;;;;;;;2.28;1.20;;;16.60;99.90;;;;;;5039972;28;20252;-78
2022/11/08 13:18:46;;;;;;;1.75;1.00;;;16.90;99.90;;;;;;5034126;28;20271;-78
2022/11/08 13:21:27;;;;;;;1.20;1.00;;;17.00;99.90;;;;;;5024488;28;20182;-79
2022/11/08 13:24:13;;;;;;;2.10;1.23;;;17.20;99.90;;;;;;5049618;28;20320;-80
2022/11/08 13:26:41;;;;;;;1.90;0.90;;;17.40;99.90;;;;;;5029570;28;20252;-78
2022/11/08 13:29:16;;;;;;;1.63;1.00;;;17.50;99.90;;;;;;5032877;28;20174;-79